createdAt,value
2022-09-12T00:00:52.543Z,76.70
2022-09-12T00:05:55.441Z,77.18
2022-09-12T00:10:58.336Z,77.12
2022-09-12T00:16:02.997Z,77.43
2022-09-12T00:21:06.427Z,77.60
2022-09-12T00:26:09.737Z,77.34
2022-09-12T00:31:16.235Z,77.05
2022-09-12T00:36:22.845Z,77.01
2022-09-12T00:41:27.810Z,77.02
2022-09-12T00:46:40.280Z,76.77
2022-09-12T00:51:47.646Z,77.00
2022-09-12T00:56:54.150Z,76.60
2022-09-12T01:01:59.077Z,76.69
2022-09-12T01:07:02.032Z,76.85
2022-09-12T01:12:06.211Z,76.93
2022-09-12T01:17:13.779Z,76.60
2022-09-12T01:22:37.062Z,77.12
2022-09-12T01:28:03.528Z,77.03
2022-09-12T01:33:39.538Z,77.24
2022-09-12T01:38:48.729Z,77.56
2022-09-12T01:43:59.727Z,78.01
2022-09-12T01:49:10.780Z,77.72
2022-09-12T01:54:19.699Z,77.63
2022-09-12T01:59:28.641Z,78.22
2022-09-12T02:04:37.973Z,78.28
2022-09-12T02:09:47.173Z,78.82
2022-09-12T02:14:54.463Z,79.08
2022-09-12T02:20:04.329Z,78.66
2022-09-12T02:25:10.392Z,78.99
2022-09-12T02:30:16.708Z,78.80
2022-09-12T02:35:32.917Z,78.33
2022-09-12T02:40:37.020Z,77.86
2022-09-12T02:45:39.894Z,77.46
2022-09-12T02:50:44.621Z,77.36
2022-09-12T02:55:47.999Z,77.45
2022-09-12T03:00:56.000Z,77.38
2022-09-12T03:06:02.105Z,76.92
2022-09-12T03:11:34.084Z,76.85
2022-09-12T03:16:44.819Z,76.84
2022-09-12T03:22:00.154Z,76.70
2022-09-12T03:27:10.942Z,76.98
2022-09-12T03:32:13.751Z,77.69
2022-09-12T03:37:17.989Z,78.11
2022-09-12T03:42:20.730Z,78.11
2022-09-12T03:47:23.470Z,77.93
2022-09-12T03:52:27.680Z,78.31
2022-09-12T03:57:30.742Z,78.59
2022-09-12T04:02:33.609Z,78.79
2022-09-12T04:07:37.820Z,78.86
2022-09-12T04:12:40.931Z,78.86
2022-09-12T04:17:43.720Z,79.11
2022-09-12T04:22:47.841Z,79.39
2022-09-12T04:27:50.652Z,79.27
2022-09-12T04:32:53.434Z,79.39
2022-09-12T04:37:57.722Z,79.37
2022-09-12T04:43:00.713Z,79.35
2022-09-12T04:48:03.804Z,79.40
2022-09-12T04:53:07.923Z,79.37
2022-09-12T04:58:10.733Z,79.09
2022-09-12T05:03:14.192Z,79.20
2022-09-12T05:08:18.672Z,79.14
2022-09-12T05:13:22.124Z,79.05
2022-09-12T05:18:26.497Z,79.11
2022-09-12T05:23:31.533Z,78.85
2022-09-12T05:28:36.371Z,78.44
2022-09-12T05:33:40.769Z,78.29
2022-09-12T05:38:45.359Z,78.32
2022-09-12T05:43:49.128Z,78.06
2022-09-12T05:48:55.843Z,78.05
2022-09-12T05:54:03.243Z,77.95
2022-09-12T05:59:07.945Z,77.69
2022-09-12T06:04:11.012Z,77.28
2022-09-12T06:09:16.805Z,76.71
2022-09-12T06:14:19.819Z,76.49
2022-09-12T06:19:25.059Z,76.20
2022-09-12T06:24:29.396Z,75.93
2022-09-12T06:29:32.883Z,75.03
2022-09-12T06:34:36.530Z,74.48
2022-09-12T06:39:40.713Z,74.23
2022-09-12T06:44:44.354Z,72.79
2022-09-12T06:49:47.115Z,72.12
2022-09-12T06:54:51.282Z,71.00
2022-09-12T06:59:54.163Z,69.93
2022-09-12T07:04:56.986Z,68.54
2022-09-12T07:10:01.137Z,67.41
2022-09-12T07:15:03.943Z,65.93
2022-09-12T07:20:07.865Z,64.75
2022-09-12T07:25:12.138Z,63.66
2022-09-12T07:30:14.973Z,63.63
2022-09-12T07:35:18.122Z,62.46
2022-09-12T07:40:22.980Z,60.96
2022-09-12T07:45:26.955Z,60.29
2022-09-12T07:50:29.858Z,58.17
2022-09-12T07:55:34.247Z,58.85
2022-09-12T08:00:37.798Z,58.16
2022-09-12T08:05:40.916Z,56.75
2022-09-12T08:10:45.134Z,56.06
2022-09-12T08:15:47.980Z,55.47
2022-09-12T08:20:57.660Z,54.12
2022-09-12T08:26:06.163Z,54.17
2022-09-12T08:31:12.235Z,53.52
2022-09-12T08:36:16.949Z,55.07
2022-09-12T08:41:30.379Z,55.08
2022-09-12T08:46:37.564Z,55.17
2022-09-12T08:51:41.749Z,54.33
2022-09-12T08:56:47.730Z,54.39
2022-09-12T09:01:58.390Z,54.40
2022-09-12T09:07:33.106Z,54.49
2022-09-12T09:12:47.617Z,54.44
2022-09-12T09:17:55.060Z,53.61
2022-09-12T09:23:03.427Z,53.08
2022-09-12T09:28:15.157Z,53.28
2022-09-12T09:33:23.508Z,51.81
2022-09-12T09:38:32.715Z,51.88
2022-09-12T09:43:39.375Z,52.70
2022-09-12T09:48:46.130Z,51.72
2022-09-12T09:53:53.219Z,51.33
2022-09-12T09:58:57.455Z,50.54
2022-09-12T10:04:00.626Z,50.85
2022-09-12T10:09:18.751Z,51.40
2022-09-12T10:14:38.482Z,50.28
2022-09-12T10:19:41.563Z,51.15
2022-09-12T10:24:50.180Z,50.82
2022-09-12T10:30:01.631Z,49.80
2022-09-12T10:35:09.141Z,49.88
2022-09-12T10:40:25.237Z,49.48
2022-09-12T10:45:32.410Z,50.25
2022-09-12T10:50:38.426Z,50.52
2022-09-12T10:55:46.825Z,49.17
2022-09-12T11:01:03.253Z,48.59
2022-09-12T11:06:07.825Z,47.01
2022-09-12T11:11:25.031Z,45.61
2022-09-12T11:16:43.132Z,43.79
2022-09-12T11:22:01.827Z,40.78
2022-09-12T11:27:20.805Z,41.86
2022-09-12T11:32:41.887Z,44.30
2022-09-12T11:38:07.640Z,41.87
2022-09-12T11:43:21.804Z,42.45
2022-09-12T11:48:39.427Z,37.65
2022-09-12T11:53:44.679Z,38.40
2022-09-12T11:58:56.756Z,37.12
2022-09-12T12:04:07.625Z,36.74
2022-09-12T12:09:12.795Z,37.63
2022-09-12T12:14:18.921Z,36.55
2022-09-12T12:19:34.836Z,36.00
2022-09-12T12:25:04.777Z,37.78
2022-09-12T12:30:59.720Z,37.28
2022-09-12T12:36:09.843Z,34.96
2022-09-12T12:41:44.758Z,35.46
2022-09-12T12:47:15.629Z,33.00
2022-09-12T12:52:20.800Z,34.24
2022-09-12T12:57:42.204Z,32.78
2022-09-12T13:02:53.528Z,34.46
2022-09-12T13:08:01.747Z,34.05
2022-09-12T13:13:08.615Z,36.58
2022-09-12T13:18:14.598Z,33.76
2022-09-12T13:23:27.875Z,32.63
2022-09-12T13:28:31.860Z,31.69
2022-09-12T13:33:39.102Z,32.11
2022-09-12T13:38:55.397Z,30.73
2022-09-12T13:43:58.401Z,32.05
2022-09-12T13:49:07.759Z,31.78
2022-09-12T13:54:24.319Z,32.80
2022-09-12T13:59:28.053Z,33.83
2022-09-12T14:04:48.496Z,32.40
2022-09-12T14:09:57.023Z,33.86
2022-09-12T14:15:00.036Z,35.92
2022-09-12T14:20:07.131Z,34.73
2022-09-12T14:25:17.221Z,33.45
2022-09-12T14:30:26.510Z,34.42
2022-09-12T14:35:29.602Z,34.05
2022-09-12T14:40:42.762Z,33.07
2022-09-12T14:45:52.611Z,32.94
2022-09-12T14:50:55.889Z,34.53
2022-09-12T14:56:09.019Z,34.08
2022-09-12T15:01:27.924Z,35.15
2022-09-12T15:06:33.210Z,34.09
2022-09-12T15:11:37.413Z,35.45
2022-09-12T15:16:40.323Z,34.82
2022-09-12T15:21:43.204Z,35.33
2022-09-12T15:26:47.556Z,36.43
2022-09-12T15:31:52.560Z,36.25
2022-09-12T15:36:55.565Z,36.71
2022-09-12T15:41:59.771Z,36.70
2022-09-12T15:47:02.657Z,37.88
2022-09-12T15:52:05.687Z,38.36
2022-09-12T15:57:10.646Z,39.07
2022-09-12T16:02:13.550Z,39.66
2022-09-12T16:07:16.449Z,38.78
2022-09-12T16:12:20.666Z,38.51
2022-09-12T16:17:24.015Z,38.50
2022-09-12T16:22:26.895Z,39.63
2022-09-12T16:27:31.171Z,39.98
2022-09-12T16:32:34.579Z,39.92
2022-09-12T16:37:38.004Z,40.32
2022-09-12T16:42:43.884Z,40.67
2022-09-12T16:47:46.840Z,41.21
2022-09-12T16:52:49.839Z,41.68
2022-09-12T16:57:54.177Z,42.00
2022-09-12T17:02:57.197Z,42.58
2022-09-12T17:08:00.642Z,43.30
2022-09-12T17:13:04.897Z,43.98
2022-09-12T17:18:07.955Z,44.18
2022-09-12T17:23:10.831Z,44.81
2022-09-12T17:28:15.736Z,45.25
2022-09-12T17:33:18.745Z,46.37
2022-09-12T17:38:25.278Z,46.72
2022-09-12T17:43:29.998Z,47.52
2022-09-12T17:48:33.152Z,48.14
2022-09-12T17:53:36.102Z,48.43
2022-09-12T17:58:40.612Z,48.80
2022-09-12T18:03:43.422Z,48.85
2022-09-12T18:08:46.434Z,49.39
2022-09-12T18:13:50.903Z,50.15
2022-09-12T18:18:53.855Z,50.27
2022-09-12T18:23:58.951Z,50.17
2022-09-12T18:29:03.293Z,50.14
2022-09-12T18:34:07.766Z,50.60
2022-09-12T18:39:11.247Z,50.93
2022-09-12T18:44:15.467Z,51.58
2022-09-12T18:49:18.468Z,52.04
2022-09-12T18:54:21.687Z,52.38
2022-09-12T18:59:26.162Z,52.46
2022-09-12T19:04:29.165Z,53.41
2022-09-12T19:09:31.974Z,54.07
2022-09-12T19:14:36.318Z,54.22
2022-09-12T19:19:40.648Z,54.62
2022-09-12T19:24:43.645Z,55.01
2022-09-12T19:29:47.929Z,55.25
2022-09-12T19:34:50.903Z,55.04
2022-09-12T19:39:53.777Z,55.19
2022-09-12T19:44:57.968Z,55.24
2022-09-12T19:50:00.823Z,55.64
2022-09-12T19:55:03.891Z,55.82
2022-09-12T20:00:09.600Z,56.01
2022-09-12T20:05:12.621Z,55.98
2022-09-12T20:10:15.718Z,56.16
2022-09-12T20:15:20.136Z,56.29
2022-09-12T20:20:25.084Z,56.40
2022-09-12T20:25:27.898Z,56.93
2022-09-12T20:30:32.311Z,57.14
2022-09-12T20:35:35.154Z,57.30
2022-09-12T20:40:38.092Z,57.67
2022-09-12T20:45:42.932Z,57.72
2022-09-12T20:50:45.725Z,58.01
2022-09-12T20:55:52.330Z,57.57
2022-09-12T21:00:56.536Z,57.42
2022-09-12T21:05:59.403Z,57.60
2022-09-12T21:11:02.678Z,57.78
2022-09-12T21:16:09.100Z,58.00
2022-09-12T21:21:13.015Z,57.71
2022-09-12T21:26:15.865Z,56.98
2022-09-12T21:38:07.937Z,55.34
2022-09-12T21:43:13.042Z,55.17
2022-09-12T21:48:15.896Z,55.24
2022-09-12T21:53:19.887Z,55.81
2022-09-12T21:58:22.673Z,56.07
2022-09-12T22:03:25.998Z,56.31
2022-09-12T22:08:31.208Z,56.54
2022-09-12T22:13:33.952Z,56.93
2022-09-12T22:18:38.020Z,56.63
2022-09-12T22:23:59.690Z,56.88
2022-09-12T22:29:02.476Z,57.17
2022-09-12T22:34:05.352Z,57.10
2022-09-12T22:39:09.769Z,57.36
2022-09-12T22:44:12.816Z,57.51
2022-09-12T22:49:15.561Z,57.67
2022-09-12T22:54:19.848Z,57.95
2022-09-12T22:59:22.622Z,57.97
2022-09-12T23:04:25.371Z,57.97
2022-09-12T23:09:34.630Z,58.21
2022-09-12T23:14:38.085Z,57.89
2022-09-12T23:19:40.841Z,58.11
2022-09-12T23:24:45.002Z,58.35
2022-09-12T23:29:52.386Z,58.41
2022-09-12T23:34:55.169Z,58.40
2022-09-12T23:39:59.288Z,58.46
2022-09-12T23:45:02.077Z,58.25
2022-09-12T23:50:05.516Z,57.81
2022-09-12T23:55:10.529Z,57.61
